Bilma, Niger
Current Conditions -  °F | °C
As of 9:30 PM on Friday 28 Nov 2014 (Local Time) from KQAZ Reporting Station
Clear Clear  
Wind Chill: 72°   Ceiling: Unl
Heat Index: 72°   Visibility: 6mi
Dew Point: 30°   Wind: 3mph
Humidity: 22%   Direction: 110°ESE
Pressure: 30.01"   Gusts: NA
Location:  18.69°N, 12.94°E
Report Text: KQAZ 282030Z AUTO 11003KT 9999 CLR 22/M01 A3001 RMK CDP03565 CLR
Loading
Personal Weather Stations






























Interactive Weather Map New forecast layout! Learn more

10-Day Weather Forecast

Advertisements
Track Severe Weather on mobile